sensor_id;sensor_type;location;lat;lon;timestamp;P1;durP1;ratioP1;P2;durP2;ratioP2
3271;SDS011;1648;50.022;8.424;2023-04-28T00:03:23;8.60;;;5.47;;
3271;SDS011;1648;50.022;8.424;2023-04-28T00:08:26;9.20;;;5.20;;
3271;SDS011;1648;50.022;8.424;2023-04-28T00:13:28;8.00;;;5.05;;
3271;SDS011;1648;50.022;8.424;2023-04-28T00:18:30;15.40;;;6.68;;
3271;SDS011;1648;50.022;8.424;2023-04-28T00:23:33;11.25;;;5.60;;
3271;SDS011;1648;50.022;8.424;2023-04-28T00:28:34;7.68;;;4.90;;
3271;SDS011;1648;50.022;8.424;2023-04-28T00:33:36;13.13;;;5.18;;
3271;SDS011;1648;50.022;8.424;2023-04-28T00:38:39;9.70;;;4.72;;
3271;SDS011;1648;50.022;8.424;2023-04-28T00:43:44;7.80;;;5.32;;
3271;SDS011;1648;50.022;8.424;2023-04-28T00:48:47;9.50;;;5.00;;
3271;SDS011;1648;50.022;8.424;2023-04-28T00:53:50;9.10;;;4.90;;
3271;SDS011;1648;50.022;8.424;2023-04-28T00:58:52;8.73;;;4.85;;
3271;SDS011;1648;50.022;8.424;2023-04-28T01:03:53;15.35;;;5.65;;
3271;SDS011;1648;50.022;8.424;2023-04-28T01:08:58;11.20;;;5.60;;
3271;SDS011;1648;50.022;8.424;2023-04-28T01:13:59;6.93;;;5.10;;
3271;SDS011;1648;50.022;8.424;2023-04-28T01:19:06;11.13;;;5.70;;
3271;SDS011;1648;50.022;8.424;2023-04-28T01:24:12;9.93;;;4.88;;
3271;SDS011;1648;50.022;8.424;2023-04-28T01:29:13;10.52;;;5.65;;
3271;SDS011;1648;50.022;8.424;2023-04-28T01:34:15;11.40;;;6.45;;
3271;SDS011;1648;50.022;8.424;2023-04-28T01:39:19;11.65;;;5.80;;
3271;SDS011;1648;50.022;8.424;2023-04-28T01:44:21;14.35;;;6.45;;
3271;SDS011;1648;50.022;8.424;2023-04-28T01:49:22;9.95;;;6.07;;
3271;SDS011;1648;50.022;8.424;2023-04-28T01:54:25;8.15;;;5.88;;
3271;SDS011;1648;50.022;8.424;2023-04-28T01:59:27;9.48;;;5.50;;
3271;SDS011;1648;50.022;8.424;2023-04-28T02:04:29;8.10;;;5.47;;
3271;SDS011;1648;50.022;8.424;2023-04-28T02:09:33;12.70;;;6.28;;
3271;SDS011;1648;50.022;8.424;2023-04-28T02:14:34;9.85;;;6.70;;
3271;SDS011;1648;50.022;8.424;2023-04-28T02:19:36;12.45;;;6.38;;
3271;SDS011;1648;50.022;8.424;2023-04-28T02:24:56;9.77;;;6.53;;
3271;SDS011;1648;50.022;8.424;2023-04-28T02:29:58;14.45;;;7.35;;
3271;SDS011;1648;50.022;8.424;2023-04-28T02:35:01;10.10;;;6.65;;
3271;SDS011;1648;50.022;8.424;2023-04-28T02:40:04;13.75;;;7.20;;
3271;SDS011;1648;50.022;8.424;2023-04-28T02:45:08;11.45;;;7.32;;
3271;SDS011;1648;50.022;8.424;2023-04-28T02:50:10;13.95;;;6.78;;
3271;SDS011;1648;50.022;8.424;2023-04-28T02:55:13;11.48;;;7.07;;
3271;SDS011;1648;50.022;8.424;2023-04-28T03:00:15;10.63;;;7.07;;
3271;SDS011;1648;50.022;8.424;2023-04-28T03:05:22;11.70;;;6.95;;
3271;SDS011;1648;50.022;8.424;2023-04-28T03:10:25;8.82;;;7.57;;
3271;SDS011;1648;50.022;8.424;2023-04-28T03:15:27;10.48;;;6.88;;
3271;SDS011;1648;50.022;8.424;2023-04-28T03:20:28;8.68;;;6.47;;
3271;SDS011;1648;50.022;8.424;2023-04-28T03:25:31;10.48;;;7.00;;
3271;SDS011;1648;50.022;8.424;2023-04-28T03:30:33;12.85;;;7.13;;
3271;SDS011;1648;50.022;8.424;2023-04-28T03:35:35;10.95;;;6.90;;
3271;SDS011;1648;50.022;8.424;2023-04-28T03:40:38;10.07;;;6.97;;
3271;SDS011;1648;50.022;8.424;2023-04-28T03:46:02;36.25;;;25.08;;
3271;SDS011;1648;50.022;8.424;2023-04-28T03:51:05;11.90;;;8.55;;
3271;SDS011;1648;50.022;8.424;2023-04-28T03:56:08;10.50;;;7.80;;
3271;SDS011;1648;50.022;8.424;2023-04-28T04:01:09;11.48;;;7.97;;
3271;SDS011;1648;50.022;8.424;2023-04-28T04:06:11;11.18;;;8.15;;
3271;SDS011;1648;50.022;8.424;2023-04-28T04:11:15;15.25;;;8.65;;
3271;SDS011;1648;50.022;8.424;2023-04-28T04:16:17;20.60;;;13.63;;
3271;SDS011;1648;50.022;8.424;2023-04-28T04:21:19;12.00;;;8.48;;
3271;SDS011;1648;50.022;8.424;2023-04-28T04:26:24;14.63;;;9.20;;
3271;SDS011;1648;50.022;8.424;2023-04-28T04:31:27;13.45;;;8.77;;
3271;SDS011;1648;50.022;8.424;2023-04-28T04:36:30;12.32;;;8.57;;
3271;SDS011;1648;50.022;8.424;2023-04-28T04:41:33;13.98;;;10.30;;
3271;SDS011;1648;50.022;8.424;2023-04-28T04:46:58;12.05;;;9.57;;
3271;SDS011;1648;50.022;8.424;2023-04-28T04:52:00;17.00;;;9.60;;
3271;SDS011;1648;50.022;8.424;2023-04-28T04:57:04;12.48;;;9.57;;
3271;SDS011;1648;50.022;8.424;2023-04-28T05:07:34;12.88;;;9.55;;
3271;SDS011;1648;50.022;8.424;2023-04-28T05:12:38;12.95;;;10.88;;
3271;SDS011;1648;50.022;8.424;2023-04-28T05:17:39;18.85;;;10.95;;
3271;SDS011;1648;50.022;8.424;2023-04-28T05:22:41;14.95;;;11.65;;
3271;SDS011;1648;50.022;8.424;2023-04-28T05:27:44;18.60;;;11.77;;
3271;SDS011;1648;50.022;8.424;2023-04-28T05:32:46;14.75;;;12.23;;
3271;SDS011;1648;50.022;8.424;2023-04-28T05:37:48;18.00;;;12.68;;
3271;SDS011;1648;50.022;8.424;2023-04-28T05:42:51;21.98;;;12.70;;
3271;SDS011;1648;50.022;8.424;2023-04-28T05:47:54;17.95;;;13.07;;
3271;SDS011;1648;50.022;8.424;2023-04-28T05:52:57;19.20;;;13.73;;
3271;SDS011;1648;50.022;8.424;2023-04-28T05:58:00;24.08;;;15.93;;
3271;SDS011;1648;50.022;8.424;2023-04-28T06:03:02;22.73;;;15.98;;
3271;SDS011;1648;50.022;8.424;2023-04-28T06:08:04;25.23;;;16.15;;
3271;SDS011;1648;50.022;8.424;2023-04-28T06:13:07;27.88;;;17.60;;
3271;SDS011;1648;50.022;8.424;2023-04-28T06:18:09;26.02;;;17.17;;
3271;SDS011;1648;50.022;8.424;2023-04-28T06:23:11;22.30;;;16.67;;
3271;SDS011;1648;50.022;8.424;2023-04-28T06:28:19;29.50;;;19.65;;
3271;SDS011;1648;50.022;8.424;2023-04-28T06:33:20;29.05;;;18.52;;
3271;SDS011;1648;50.022;8.424;2023-04-28T06:38:22;28.42;;;19.27;;
3271;SDS011;1648;50.022;8.424;2023-04-28T06:43:25;32.42;;;20.20;;
3271;SDS011;1648;50.022;8.424;2023-04-28T06:48:37;28.95;;;21.00;;
3271;SDS011;1648;50.022;8.424;2023-04-28T06:53:39;31.10;;;20.42;;
3271;SDS011;1648;50.022;8.424;2023-04-28T06:58:43;33.65;;;22.10;;
3271;SDS011;1648;50.022;8.424;2023-04-28T07:03:44;30.02;;;20.48;;
3271;SDS011;1648;50.022;8.424;2023-04-28T07:08:46;33.03;;;20.98;;
3271;SDS011;1648;50.022;8.424;2023-04-28T07:13:49;31.15;;;22.15;;
3271;SDS011;1648;50.022;8.424;2023-04-28T07:18:51;35.70;;;24.33;;
3271;SDS011;1648;50.022;8.424;2023-04-28T07:23:52;35.95;;;23.70;;
3271;SDS011;1648;50.022;8.424;2023-04-28T07:28:55;33.15;;;19.73;;
3271;SDS011;1648;50.022;8.424;2023-04-28T07:33:57;31.98;;;22.25;;
3271;SDS011;1648;50.022;8.424;2023-04-28T07:38:59;29.33;;;20.73;;
3271;SDS011;1648;50.022;8.424;2023-04-28T07:44:02;30.67;;;20.65;;
3271;SDS011;1648;50.022;8.424;2023-04-28T07:49:04;29.95;;;22.20;;
3271;SDS011;1648;50.022;8.424;2023-04-28T07:54:05;29.08;;;20.30;;
3271;SDS011;1648;50.022;8.424;2023-04-28T07:59:08;30.45;;;21.15;;
3271;SDS011;1648;50.022;8.424;2023-04-28T08:04:10;28.50;;;20.00;;
3271;SDS011;1648;50.022;8.424;2023-04-28T08:09:12;33.70;;;23.33;;
3271;SDS011;1648;50.022;8.424;2023-04-28T08:14:15;33.95;;;21.98;;
3271;SDS011;1648;50.022;8.424;2023-04-28T08:19:17;33.70;;;21.73;;
3271;SDS011;1648;50.022;8.424;2023-04-28T08:24:19;30.17;;;21.48;;
3271;SDS011;1648;50.022;8.424;2023-04-28T08:29:22;31.20;;;22.63;;
3271;SDS011;1648;50.022;8.424;2023-04-28T08:34:24;31.60;;;23.17;;
3271;SDS011;1648;50.022;8.424;2023-04-28T08:39:25;28.95;;;20.77;;
3271;SDS011;1648;50.022;8.424;2023-04-28T08:44:30;32.35;;;22.40;;
3271;SDS011;1648;50.022;8.424;2023-04-28T08:49:34;32.67;;;22.88;;
3271;SDS011;1648;50.022;8.424;2023-04-28T08:54:37;37.88;;;24.88;;
3271;SDS011;1648;50.022;8.424;2023-04-28T08:59:41;31.10;;;22.05;;
3271;SDS011;1648;50.022;8.424;2023-04-28T09:04:42;28.70;;;20.20;;
3271;SDS011;1648;50.022;8.424;2023-04-28T09:09:44;28.88;;;20.75;;
3271;SDS011;1648;50.022;8.424;2023-04-28T09:14:47;33.28;;;20.95;;
3271;SDS011;1648;50.022;8.424;2023-04-28T09:19:58;30.48;;;20.85;;
3271;SDS011;1648;50.022;8.424;2023-04-28T09:25:09;27.23;;;21.00;;
3271;SDS011;1648;50.022;8.424;2023-04-28T09:30:13;27.45;;;20.20;;
3271;SDS011;1648;50.022;8.424;2023-04-28T09:35:16;31.45;;;19.60;;
3271;SDS011;1648;50.022;8.424;2023-04-28T09:40:51;26.20;;;19.55;;
3271;SDS011;1648;50.022;8.424;2023-04-28T09:45:56;28.70;;;20.83;;
3271;SDS011;1648;50.022;8.424;2023-04-28T09:50:58;27.67;;;20.50;;
3271;SDS011;1648;50.022;8.424;2023-04-28T09:56:01;27.77;;;20.50;;
3271;SDS011;1648;50.022;8.424;2023-04-28T10:01:05;26.75;;;20.00;;
3271;SDS011;1648;50.022;8.424;2023-04-28T10:06:08;26.80;;;21.08;;
3271;SDS011;1648;50.022;8.424;2023-04-28T10:11:10;29.63;;;19.33;;
3271;SDS011;1648;50.022;8.424;2023-04-28T10:16:13;27.73;;;19.50;;
3271;SDS011;1648;50.022;8.424;2023-04-28T10:21:15;26.38;;;19.67;;
3271;SDS011;1648;50.022;8.424;2023-04-28T10:26:18;25.27;;;18.48;;
3271;SDS011;1648;50.022;8.424;2023-04-28T10:31:21;25.73;;;19.70;;
3271;SDS011;1648;50.022;8.424;2023-04-28T10:41:47;24.70;;;19.20;;
3271;SDS011;1648;50.022;8.424;2023-04-28T10:47:00;27.10;;;19.20;;
3271;SDS011;1648;50.022;8.424;2023-04-28T10:52:02;24.35;;;19.45;;
3271;SDS011;1648;50.022;8.424;2023-04-28T10:57:39;26.90;;;19.42;;
3271;SDS011;1648;50.022;8.424;2023-04-28T11:02:42;24.10;;;18.33;;
3271;SDS011;1648;50.022;8.424;2023-04-28T11:13:32;25.63;;;19.90;;
3271;SDS011;1648;50.022;8.424;2023-04-28T11:18:42;23.40;;;18.67;;
3271;SDS011;1648;50.022;8.424;2023-04-28T11:23:49;22.98;;;18.50;;
3271;SDS011;1648;50.022;8.424;2023-04-28T11:28:51;22.48;;;18.83;;
3271;SDS011;1648;50.022;8.424;2023-04-28T11:33:59;20.60;;;16.08;;
3271;SDS011;1648;50.022;8.424;2023-04-28T11:39:02;23.17;;;18.75;;
3271;SDS011;1648;50.022;8.424;2023-04-28T11:44:11;22.35;;;17.55;;
3271;SDS011;1648;50.022;8.424;2023-04-28T11:49:14;19.15;;;16.60;;
3271;SDS011;1648;50.022;8.424;2023-04-28T11:54:19;18.90;;;14.23;;
3271;SDS011;1648;50.022;8.424;2023-04-28T11:59:22;19.17;;;14.88;;
3271;SDS011;1648;50.022;8.424;2023-04-28T12:04:32;17.97;;;13.43;;
3271;SDS011;1648;50.022;8.424;2023-04-28T12:09:35;19.23;;;14.70;;
3271;SDS011;1648;50.022;8.424;2023-04-28T12:14:53;14.95;;;13.13;;
3271;SDS011;1648;50.022;8.424;2023-04-28T12:19:57;16.20;;;12.07;;
3271;SDS011;1648;50.022;8.424;2023-04-28T12:25:03;15.20;;;12.25;;
3271;SDS011;1648;50.022;8.424;2023-04-28T12:35:26;14.52;;;11.95;;
3271;SDS011;1648;50.022;8.424;2023-04-28T12:40:29;11.43;;;10.23;;
3271;SDS011;1648;50.022;8.424;2023-04-28T12:45:30;10.07;;;9.00;;
3271;SDS011;1648;50.022;8.424;2023-04-28T12:50:33;16.50;;;9.75;;
3271;SDS011;1648;50.022;8.424;2023-04-28T12:55:35;9.95;;;8.98;;
3271;SDS011;1648;50.022;8.424;2023-04-28T13:00:37;16.63;;;13.93;;
3271;SDS011;1648;50.022;8.424;2023-04-28T13:05:40;11.50;;;9.05;;
3271;SDS011;1648;50.022;8.424;2023-04-28T13:10:42;9.50;;;7.63;;
3271;SDS011;1648;50.022;8.424;2023-04-28T13:15:43;10.07;;;7.60;;
3271;SDS011;1648;50.022;8.424;2023-04-28T13:20:46;8.27;;;7.47;;
3271;SDS011;1648;50.022;8.424;2023-04-28T13:25:49;13.57;;;8.43;;
3271;SDS011;1648;50.022;8.424;2023-04-28T13:30:50;10.88;;;9.70;;
3271;SDS011;1648;50.022;8.424;2023-04-28T13:35:53;13.30;;;11.18;;
3271;SDS011;1648;50.022;8.424;2023-04-28T13:40:55;14.27;;;12.18;;
3271;SDS011;1648;50.022;8.424;2023-04-28T13:45:57;14.60;;;11.75;;
3271;SDS011;1648;50.022;8.424;2023-04-28T13:51:00;12.55;;;11.30;;
3271;SDS011;1648;50.022;8.424;2023-04-28T13:56:02;12.45;;;11.15;;
3271;SDS011;1648;50.022;8.424;2023-04-28T14:01:04;15.73;;;13.02;;
3271;SDS011;1648;50.022;8.424;2023-04-28T14:06:07;13.88;;;10.15;;
3271;SDS011;1648;50.022;8.424;2023-04-28T14:11:09;11.10;;;9.93;;
3271;SDS011;1648;50.022;8.424;2023-04-28T14:16:11;10.18;;;9.18;;
3271;SDS011;1648;50.022;8.424;2023-04-28T14:21:14;10.20;;;9.00;;
3271;SDS011;1648;50.022;8.424;2023-04-28T14:26:16;9.75;;;8.85;;
3271;SDS011;1648;50.022;8.424;2023-04-28T14:31:17;10.05;;;9.05;;
3271;SDS011;1648;50.022;8.424;2023-04-28T14:36:20;9.73;;;8.73;;
3271;SDS011;1648;50.022;8.424;2023-04-28T14:41:22;9.65;;;8.75;;
3271;SDS011;1648;50.022;8.424;2023-04-28T14:46:24;7.82;;;7.05;;
3271;SDS011;1648;50.022;8.424;2023-04-28T14:51:27;8.05;;;7.30;;
3271;SDS011;1648;50.022;8.424;2023-04-28T14:56:29;9.90;;;8.90;;
3271;SDS011;1648;50.022;8.424;2023-04-28T15:01:34;18.00;;;14.60;;
3271;SDS011;1648;50.022;8.424;2023-04-28T15:06:37;11.50;;;10.07;;
3271;SDS011;1648;50.022;8.424;2023-04-28T15:11:39;12.30;;;10.77;;
3271;SDS011;1648;50.022;8.424;2023-04-28T15:16:40;8.90;;;8.00;;
3271;SDS011;1648;50.022;8.424;2023-04-28T15:21:44;9.98;;;8.98;;
3271;SDS011;1648;50.022;8.424;2023-04-28T15:26:46;7.70;;;7.00;;
3271;SDS011;1648;50.022;8.424;2023-04-28T15:31:48;5.10;;;4.60;;
3271;SDS011;1648;50.022;8.424;2023-04-28T15:36:51;6.85;;;5.22;;
3271;SDS011;1648;50.022;8.424;2023-04-28T15:41:53;9.07;;;7.50;;
3271;SDS011;1648;50.022;8.424;2023-04-28T15:46:54;4.63;;;3.83;;
3271;SDS011;1648;50.022;8.424;2023-04-28T15:51:57;4.15;;;3.78;;
3271;SDS011;1648;50.022;8.424;2023-04-28T15:56:59;4.90;;;3.25;;
3271;SDS011;1648;50.022;8.424;2023-04-28T16:02:01;13.07;;;9.85;;
3271;SDS011;1648;50.022;8.424;2023-04-28T16:07:04;5.50;;;4.10;;
3271;SDS011;1648;50.022;8.424;2023-04-28T16:12:06;3.75;;;3.45;;
3271;SDS011;1648;50.022;8.424;2023-04-28T16:17:07;4.50;;;3.75;;
3271;SDS011;1648;50.022;8.424;2023-04-28T16:22:11;4.10;;;3.30;;
3271;SDS011;1648;50.022;8.424;2023-04-28T16:27:12;4.88;;;4.30;;
3271;SDS011;1648;50.022;8.424;2023-04-28T16:32:14;10.60;;;8.68;;
3271;SDS011;1648;50.022;8.424;2023-04-28T16:37:17;10.50;;;8.38;;
3271;SDS011;1648;50.022;8.424;2023-04-28T16:42:19;4.93;;;4.20;;
3271;SDS011;1648;50.022;8.424;2023-04-28T16:47:21;5.93;;;5.25;;
3271;SDS011;1648;50.022;8.424;2023-04-28T16:52:24;8.88;;;6.10;;
3271;SDS011;1648;50.022;8.424;2023-04-28T16:57:26;8.15;;;6.00;;
3271;SDS011;1648;50.022;8.424;2023-04-28T17:02:28;9.20;;;5.38;;
3271;SDS011;1648;50.022;8.424;2023-04-28T17:07:31;5.57;;;4.07;;
3271;SDS011;1648;50.022;8.424;2023-04-28T17:12:33;4.38;;;3.42;;
3271;SDS011;1648;50.022;8.424;2023-04-28T17:17:34;2.70;;;1.85;;
3271;SDS011;1648;50.022;8.424;2023-04-28T17:22:38;18.73;;;14.95;;
3271;SDS011;1648;50.022;8.424;2023-04-28T17:27:39;6.03;;;2.83;;
3271;SDS011;1648;50.022;8.424;2023-04-28T17:32:41;2.80;;;1.58;;
3271;SDS011;1648;50.022;8.424;2023-04-28T17:37:44;4.30;;;1.73;;
3271;SDS011;1648;50.022;8.424;2023-04-28T17:42:46;8.32;;;5.15;;
3271;SDS011;1648;50.022;8.424;2023-04-28T17:47:48;5.75;;;3.65;;
3271;SDS011;1648;50.022;8.424;2023-04-28T17:52:51;2.63;;;2.05;;
3271;SDS011;1648;50.022;8.424;2023-04-28T17:57:53;4.40;;;1.80;;
3271;SDS011;1648;50.022;8.424;2023-04-28T18:02:54;5.05;;;2.75;;
3271;SDS011;1648;50.022;8.424;2023-04-28T18:07:59;1.90;;;1.58;;
3271;SDS011;1648;50.022;8.424;2023-04-28T18:13:02;4.80;;;3.60;;
3271;SDS011;1648;50.022;8.424;2023-04-28T18:18:04;4.68;;;3.97;;
3271;SDS011;1648;50.022;8.424;2023-04-28T18:23:07;4.57;;;2.45;;
3271;SDS011;1648;50.022;8.424;2023-04-28T18:28:09;5.65;;;2.83;;
3271;SDS011;1648;50.022;8.424;2023-04-28T18:33:11;3.50;;;2.70;;
3271;SDS011;1648;50.022;8.424;2023-04-28T18:38:14;6.07;;;4.68;;
3271;SDS011;1648;50.022;8.424;2023-04-28T18:43:16;5.22;;;3.13;;
3271;SDS011;1648;50.022;8.424;2023-04-28T18:48:17;8.57;;;5.65;;
3271;SDS011;1648;50.022;8.424;2023-04-28T18:53:21;9.55;;;6.03;;
3271;SDS011;1648;50.022;8.424;2023-04-28T18:58:23;9.80;;;4.63;;
3271;SDS011;1648;50.022;8.424;2023-04-28T19:03:25;8.45;;;5.03;;
3271;SDS011;1648;50.022;8.424;2023-04-28T19:08:28;10.32;;;7.45;;
3271;SDS011;1648;50.022;8.424;2023-04-28T19:13:30;9.95;;;7.35;;
3271;SDS011;1648;50.022;8.424;2023-04-28T19:18:32;9.68;;;6.82;;
3271;SDS011;1648;50.022;8.424;2023-04-28T19:23:35;11.10;;;7.60;;
3271;SDS011;1648;50.022;8.424;2023-04-28T19:28:36;9.18;;;4.43;;
3271;SDS011;1648;50.022;8.424;2023-04-28T19:33:38;10.15;;;8.13;;
3271;SDS011;1648;50.022;8.424;2023-04-28T19:38:41;13.15;;;7.30;;
3271;SDS011;1648;50.022;8.424;2023-04-28T19:43:43;12.32;;;7.35;;
3271;SDS011;1648;50.022;8.424;2023-04-28T19:48:44;11.68;;;8.85;;
3271;SDS011;1648;50.022;8.424;2023-04-28T19:53:47;10.02;;;7.20;;
3271;SDS011;1648;50.022;8.424;2023-04-28T19:58:49;11.63;;;8.25;;
3271;SDS011;1648;50.022;8.424;2023-04-28T20:03:51;8.60;;;5.40;;
3271;SDS011;1648;50.022;8.424;2023-04-28T20:08:54;10.35;;;7.70;;
3271;SDS011;1648;50.022;8.424;2023-04-28T20:13:56;16.45;;;8.27;;
3271;SDS011;1648;50.022;8.424;2023-04-28T20:18:58;13.60;;;9.18;;
3271;SDS011;1648;50.022;8.424;2023-04-28T20:24:01;9.82;;;7.15;;
3271;SDS011;1648;50.022;8.424;2023-04-28T20:29:03;14.00;;;8.30;;
3271;SDS011;1648;50.022;8.424;2023-04-28T20:34:06;9.25;;;8.18;;
3271;SDS011;1648;50.022;8.424;2023-04-28T20:39:09;13.15;;;9.18;;
3271;SDS011;1648;50.022;8.424;2023-04-28T20:44:11;10.05;;;7.18;;
3271;SDS011;1648;50.022;8.424;2023-04-28T20:49:13;8.48;;;7.60;;
3271;SDS011;1648;50.022;8.424;2023-04-28T20:54:16;8.02;;;6.40;;
3271;SDS011;1648;50.022;8.424;2023-04-28T20:59:18;7.25;;;5.40;;
3271;SDS011;1648;50.022;8.424;2023-04-28T21:04:19;6.00;;;5.03;;
3271;SDS011;1648;50.022;8.424;2023-04-28T21:09:23;6.47;;;5.07;;
3271;SDS011;1648;50.022;8.424;2023-04-28T21:14:24;5.72;;;5.22;;
3271;SDS011;1648;50.022;8.424;2023-04-28T21:19:26;7.55;;;6.15;;
3271;SDS011;1648;50.022;8.424;2023-04-28T21:24:29;8.50;;;6.53;;
3271;SDS011;1648;50.022;8.424;2023-04-28T21:29:31;8.52;;;6.45;;
3271;SDS011;1648;50.022;8.424;2023-04-28T21:34:32;9.73;;;8.68;;
3271;SDS011;1648;50.022;8.424;2023-04-28T21:39:35;10.25;;;8.07;;
3271;SDS011;1648;50.022;8.424;2023-04-28T21:44:37;12.05;;;9.02;;
3271;SDS011;1648;50.022;8.424;2023-04-28T21:49:39;7.30;;;6.03;;
3271;SDS011;1648;50.022;8.424;2023-04-28T21:54:42;8.43;;;6.95;;
3271;SDS011;1648;50.022;8.424;2023-04-28T21:59:43;12.60;;;9.07;;
3271;SDS011;1648;50.022;8.424;2023-04-28T22:04:45;11.27;;;7.53;;
3271;SDS011;1648;50.022;8.424;2023-04-28T22:09:48;8.63;;;7.72;;
3271;SDS011;1648;50.022;8.424;2023-04-28T22:14:50;12.60;;;8.40;;
3271;SDS011;1648;50.022;8.424;2023-04-28T22:19:52;9.48;;;7.03;;
3271;SDS011;1648;50.022;8.424;2023-04-28T22:24:55;13.50;;;8.65;;
3271;SDS011;1648;50.022;8.424;2023-04-28T22:29:57;11.50;;;9.15;;
3271;SDS011;1648;50.022;8.424;2023-04-28T22:34:58;10.10;;;8.80;;
3271;SDS011;1648;50.022;8.424;2023-04-28T22:40:02;13.38;;;8.63;;
3271;SDS011;1648;50.022;8.424;2023-04-28T22:45:04;10.23;;;8.85;;
3271;SDS011;1648;50.022;8.424;2023-04-28T22:50:07;13.40;;;9.07;;
3271;SDS011;1648;50.022;8.424;2023-04-28T22:55:10;11.73;;;9.40;;
3271;SDS011;1648;50.022;8.424;2023-04-28T23:00:12;12.55;;;8.18;;
3271;SDS011;1648;50.022;8.424;2023-04-28T23:05:14;9.95;;;8.93;;
3271;SDS011;1648;50.022;8.424;2023-04-28T23:10:17;9.43;;;8.05;;
3271;SDS011;1648;50.022;8.424;2023-04-28T23:15:19;10.05;;;8.27;;
3271;SDS011;1648;50.022;8.424;2023-04-28T23:20:21;11.00;;;8.40;;
3271;SDS011;1648;50.022;8.424;2023-04-28T23:25:24;10.40;;;8.93;;
3271;SDS011;1648;50.022;8.424;2023-04-28T23:30:25;9.82;;;8.82;;
3271;SDS011;1648;50.022;8.424;2023-04-28T23:35:27;10.93;;;8.73;;
3271;SDS011;1648;50.022;8.424;2023-04-28T23:40:30;10.65;;;8.50;;
3271;SDS011;1648;50.022;8.424;2023-04-28T23:45:32;8.15;;;7.32;;
3271;SDS011;1648;50.022;8.424;2023-04-28T23:50:34;7.47;;;6.60;;
3271;SDS011;1648;50.022;8.424;2023-04-28T23:55:37;10.07;;;6.90;;
